Time;durP1;ratioP1;P1;durP2;ratioP2;P2;SDS_P1;SDS_P2;PMS_P1;PMS_P2;Temp;Humidity;BMP_temperature;BMP_pressure;BME280_temperature;BME280_humidity;BME280_pressure;Samples;Min_cycle;Max_cycle;Signal;HPM_P1;HPM_P2
2021/01/24 00:00:26;;;;;;;14.65;5.20;;;;;;;2.31;100.00;100119.59;5071562;28;20044;-63
2021/01/24 00:02:52;;;;;;;7.82;4.53;;;;;;;2.29;100.00;100102.81;5071627;28;20046;-62
2021/01/24 00:05:18;;;;;;;9.93;4.60;;;;;;;2.28;100.00;100103.88;5071280;28;20072;-63
2021/01/24 00:07:43;;;;;;;8.60;4.80;;;;;;;2.26;100.00;100111.31;5071480;28;20043;-62
2021/01/24 00:10:12;;;;;;;12.00;5.25;;;;;;;2.25;100.00;100101.56;5071489;28;20414;-62
2021/01/24 00:12:41;;;;;;;8.05;5.00;;;;;;;2.25;100.00;100099.69;5071034;28;20754;-62
2021/01/24 00:15:07;;;;;;;11.60;4.25;;;;;;;2.25;100.00;100105.06;5071281;28;20382;-62
2021/01/24 00:17:33;;;;;;;9.00;5.63;;;;;;;2.25;100.00;100104.25;5053465;28;20106;-62
2021/01/24 00:20:00;;;;;;;14.48;5.20;;;;;;;2.24;100.00;100091.81;5071221;28;20510;-62
2021/01/24 00:22:28;;;;;;;12.70;5.35;;;;;;;2.22;100.00;100092.03;5071202;28;20041;-62
2021/01/24 00:24:54;;;;;;;9.38;5.07;;;;;;;2.26;100.00;100081.69;5071187;28;20140;-62
2021/01/24 00:27:20;;;;;;;11.48;5.25;;;;;;;2.26;100.00;100079.81;5071119;28;20059;-62
2021/01/24 00:29:46;;;;;;;12.05;5.07;;;;;;;2.27;100.00;100081.47;5071104;28;20168;-62
2021/01/24 00:32:12;;;;;;;11.55;5.53;;;;;;;2.31;100.00;100068.41;5071142;28;20167;-62
2021/01/24 00:34:39;;;;;;;12.20;4.97;;;;;;;2.31;100.00;100065.72;5071081;28;20364;-62
2021/01/24 00:37:05;;;;;;;12.05;5.00;;;;;;;2.35;100.00;100077.75;5071130;28;20043;-63
2021/01/24 00:39:31;;;;;;;8.75;4.03;;;;;;;2.37;100.00;100063.00;5070953;28;20036;-63
2021/01/24 00:41:57;;;;;;;11.38;5.05;;;;;;;2.39;100.00;100069.03;5070998;28;20044;-62
2021/01/24 00:44:23;;;;;;;12.43;4.20;;;;;;;2.42;100.00;100067.78;5070847;28;20117;-62
2021/01/24 00:46:49;;;;;;;8.95;4.45;;;;;;;2.46;100.00;100063.66;5070961;28;20115;-62
2021/01/24 00:49:14;;;;;;;9.57;3.97;;;;;;;2.50;100.00;100059.50;5071311;28;20036;-62
2021/01/24 00:51:40;;;;;;;11.63;4.30;;;;;;;2.53;100.00;100059.06;5070881;28;20094;-62
2021/01/24 00:54:05;;;;;;;11.27;4.40;;;;;;;2.51;100.00;100050.38;5070898;28;20469;-62
2021/01/24 00:56:31;;;;;;;11.05;4.50;;;;;;;2.53;100.00;100031.28;5070859;28;20029;-62
2021/01/24 00:58:56;;;;;;;12.07;4.90;;;;;;;2.53;100.00;100032.13;5070725;28;20036;-62
2021/01/24 01:01:22;;;;;;;11.38;5.00;;;;;;;2.53;100.00;100025.91;5070762;28;20036;-62
2021/01/24 01:03:47;;;;;;;12.35;4.13;;;;;;;2.52;100.00;100022.38;5070795;28;20044;-62
2021/01/24 01:06:13;;;;;;;7.95;3.95;;;;;;;2.53;100.00;100015.94;5070580;28;20056;-62
2021/01/24 01:08:39;;;;;;;10.32;4.07;;;;;;;2.55;100.00;100002.25;5052692;28;20052;-63
2021/01/24 01:11:04;;;;;;;8.63;3.90;;;;;;;2.57;100.00;100001.00;5070744;28;20036;-63
2021/01/24 01:13:30;;;;;;;12.25;4.00;;;;;;;2.60;100.00;100008.69;5070677;28;20029;-63
2021/01/24 01:15:55;;;;;;;11.95;3.97;;;;;;;2.60;100.00;100000.59;5070575;28;20033;-62
2021/01/24 01:18:21;;;;;;;12.98;3.50;;;;;;;2.61;100.00;100002.25;5070625;28;20048;-62
2021/01/24 01:20:47;;;;;;;12.45;3.38;;;;;;;2.64;100.00;99996.44;5036000;28;20041;-63
2021/01/24 01:23:14;;;;;;;8.40;3.75;;;;;;;2.68;100.00;99991.44;5070628;28;20495;-63
2021/01/24 01:25:40;;;;;;;8.00;3.17;;;;;;;2.75;100.00;99986.03;5073060;28;20040;-62
2021/01/24 01:28:05;;;;;;;14.40;4.22;;;;;;;2.82;100.00;99986.84;5074633;28;20049;-62
2021/01/24 01:30:31;;;;;;;10.88;3.22;;;;;;;2.87;100.00;99979.78;5074495;28;20146;-63
2021/01/24 01:32:57;;;;;;;7.43;3.10;;;;;;;2.94;100.00;99979.72;5056441;28;20048;-62
2021/01/24 01:35:22;;;;;;;9.07;3.35;;;;;;;2.99;100.00;99977.25;5056823;28;20032;-62
2021/01/24 01:37:48;;;;;;;9.23;3.38;;;;;;;3.07;100.00;99985.09;5074476;28;20121;-62
2021/01/24 01:40:13;;;;;;;12.30;2.70;;;;;;;3.16;100.00;99983.81;5074270;28;20036;-62
2021/01/24 01:42:39;;;;;;;9.88;2.80;;;;;;;3.26;100.00;99978.75;5074358;28;20081;-62
2021/01/24 01:45:06;;;;;;;6.25;1.83;;;;;;;3.39;100.00;99966.25;5074647;28;20215;-63
2021/01/24 01:47:32;;;;;;;7.78;1.80;;;;;;;3.62;100.00;99977.28;5074169;28;20040;-62
2021/01/24 01:49:58;;;;;;;9.10;1.17;;;;;;;4.21;100.00;99992.22;5074109;28;20063;-63
2021/01/24 01:52:29;;;;;;;7.35;1.38;;;;;;;4.71;100.00;100019.22;5074144;28;20036;-63
2021/01/24 01:54:56;;;;;;;9.80;1.25;;;;;;;4.94;100.00;100003.13;5074127;28;20036;-62
2021/01/24 01:57:22;;;;;;;6.43;0.50;;;;;;;4.92;100.00;99999.81;5074056;28;20402;-62
2021/01/24 01:59:49;;;;;;;8.00;0.50;;;;;;;4.90;100.00;100017.34;5073968;28;20044;-62
2021/01/24 02:02:40;;;;;;;5.32;0.60;;;;;;;4.79;100.00;100005.38;5073946;28;20045;-62
2021/01/24 02:05:16;;;;;;;5.03;0.35;;;;;;;4.72;100.00;100037.09;5073530;28;20051;-63
2021/01/24 02:07:43;;;;;;;6.63;0.40;;;;;;;4.66;100.00;100022.56;5073953;28;20036;-62
2021/01/24 02:10:29;;;;;;;4.00;0.50;;;;;;;4.58;100.00;100022.03;5073749;28;20044;-62
2021/01/24 02:13:15;;;;;;;3.33;0.32;;;;;;;4.52;100.00;100016.47;5073773;28;20501;-62
2021/01/24 02:15:44;;;;;;;4.35;0.40;;;;;;;4.47;100.00;100007.38;5073805;28;20612;-62
2021/01/24 02:18:10;;;;;;;14.07;0.82;;;;;;;4.42;100.00;100008.03;5073738;28;20483;-63
2021/01/24 02:21:00;;;;;;;5.53;0.50;;;;;;;4.41;100.00;100002.84;5073515;28;20040;-62
2021/01/24 02:23:27;;;;;;;5.78;0.22;;;;;;;4.37;100.00;100001.66;5073563;28;20040;-62
2021/01/24 02:26:04;;;;;;;2.88;0.30;;;;;;;4.35;100.00;99982.97;5073471;28;20051;-62
2021/01/24 02:28:53;;;;;;;3.22;0.35;;;;;;;4.33;100.00;99973.38;5073463;28;20040;-63
2021/01/24 02:31:20;;;;;;;5.93;0.73;;;;;;;4.34;100.00;99981.31;5055362;28;20437;-62
2021/01/24 02:33:49;;;;;;;1.88;0.22;;;;;;;4.35;100.00;99966.75;5073408;28;20571;-63
2021/01/24 02:36:17;;;;;;;3.13;0.30;;;;;;;4.36;100.00;99971.09;5072964;28;20036;-62
2021/01/24 02:38:44;;;;;;;5.45;0.38;;;;;;;4.36;100.00;99971.09;5073244;28;20032;-63
2021/01/24 02:41:10;;;;;;;1.80;0.30;;;;;;;4.37;100.00;99958.41;5073350;28;20032;-62
2021/01/24 02:43:37;;;;;;;6.35;0.43;;;;;;;4.38;100.00;99963.59;5073164;28;20044;-62
2021/01/24 02:46:04;;;;;;;8.00;0.65;;;;;;;4.45;100.00;99966.22;5073038;28;20123;-63
2021/01/24 02:48:30;;;;;;;9.00;0.52;;;;;;;4.52;100.00;99962.41;5073355;28;20384;-62
2021/01/24 02:50:56;;;;;;;7.85;0.70;;;;;;;4.57;100.00;99963.59;5072997;28;20048;-62
2021/01/24 02:53:23;;;;;;;10.40;0.50;;;;;;;4.59;100.00;99956.09;5072978;28;20041;-62
2021/01/24 02:55:48;;;;;;;12.40;0.88;;;;;;;4.59;100.00;99962.31;5072989;28;20039;-63
2021/01/24 02:58:14;;;;;;;8.35;1.15;;;;;;;4.61;100.00;99948.56;5073187;28;20036;-63
2021/01/24 03:00:40;;;;;;;6.82;0.70;;;;;;;4.64;100.00;99945.41;5072833;28;20437;-63
2021/01/24 03:03:06;;;;;;;6.18;0.40;;;;;;;4.66;100.00;99948.72;5073212;28;20375;-62
2021/01/24 03:05:31;;;;;;;7.28;0.80;;;;;;;4.68;100.00;99943.91;5054846;28;20055;-62
2021/01/24 03:07:57;;;;;;;7.72;0.70;;;;;;;4.67;100.00;99943.06;5072712;28;20047;-62
2021/01/24 03:10:23;;;;;;;14.20;1.17;;;;;;;4.68;100.00;99943.91;5072581;28;20080;-63
2021/01/24 03:13:00;;;;;;;6.40;0.50;;;;;;;4.69;100.00;99932.06;5072624;28;20127;-62
2021/01/24 03:15:26;;;;;;;7.28;0.35;;;;;;;4.69;100.00;99929.34;5072703;28;20605;-62
2021/01/24 03:17:55;;;;;;;7.68;0.65;;;;;;;4.71;100.00;99917.25;5072564;28;20068;-62
2021/01/24 03:20:22;;;;;;;6.47;0.60;;;;;;;4.76;100.00;99913.88;5072584;28;20395;-62
2021/01/24 03:22:49;;;;;;;6.50;0.40;;;;;;;4.79;100.00;99916.09;5072481;28;20041;-62
2021/01/24 03:25:19;;;;;;;6.68;0.55;;;;;;;4.84;100.00;99905.41;5072322;28;20037;-63
2021/01/24 03:27:45;;;;;;;2.33;0.30;;;;;;;4.87;100.00;99915.81;5072331;28;20127;-62
2021/01/24 03:30:12;;;;;;;6.43;1.10;;;;;;;4.93;100.00;99904.06;5072594;28;20112;-62
2021/01/24 03:32:38;;;;;;;5.00;0.70;;;;;;;4.96;100.00;99903.59;5072296;28;20487;-63
2021/01/24 03:35:05;;;;;;;5.20;0.40;;;;;;;5.00;100.00;99888.56;5072189;28;20043;-62
2021/01/24 03:37:31;;;;;;;2.45;0.40;;;;;;;5.05;100.00;99886.00;5072289;28;20048;-62
2021/01/24 03:39:57;;;;;;;6.43;0.98;;;;;;;5.08;100.00;99890.13;5054099;28;20048;-62
2021/01/24 03:42:22;;;;;;;7.45;0.50;;;;;;;5.09;100.00;99892.59;5072018;28;20127;-63
2021/01/24 03:44:48;;;;;;;2.70;0.50;;;;;;;5.11;100.00;99884.25;5072008;28;20132;-63
2021/01/24 03:47:15;;;;;;;5.43;0.70;;;;;;;5.09;100.00;99887.19;5071543;28;20111;-63
2021/01/24 03:49:41;;;;;;;9.63;0.70;;;;;;;5.04;100.00;99884.38;5053925;28;20059;-62
2021/01/24 03:52:06;;;;;;;8.40;0.90;;;;;;;5.00;100.00;99877.72;5071846;28;20028;-62
2021/01/24 03:54:32;;;;;;;6.68;0.68;;;;;;;4.96;100.00;99873.84;5071855;28;20044;-63
2021/01/24 03:56:58;;;;;;;6.20;0.50;;;;;;;4.96;100.00;99876.56;5053804;28;20044;-63
2021/01/24 03:59:24;;;;;;;5.82;0.50;;;;;;;4.97;100.00;99867.38;5071570;28;20040;-63
2021/01/24 04:01:49;;;;;;;3.10;0.50;;;;;;;5.00;100.00;99872.31;5071759;28;20040;-63
2021/01/24 04:04:15;;;;;;;7.90;0.60;;;;;;;5.03;100.00;99871.03;5071789;28;20041;-63
2021/01/24 04:06:41;;;;;;;13.75;0.88;;;;;;;5.03;100.00;99866.47;5053316;28;20422;-62
2021/01/24 04:09:07;;;;;;;3.10;0.40;;;;;;;5.04;100.00;99862.72;5071467;28;20119;-62
2021/01/24 04:11:32;;;;;;;4.47;0.60;;;;;;;5.05;100.00;99864.38;5071509;28;20486;-62
2021/01/24 04:13:58;;;;;;;3.22;0.60;;;;;;;5.03;100.00;99852.94;5071333;28;20040;-62
2021/01/24 04:16:23;;;;;;;7.43;0.88;;;;;;;5.05;100.00;99853.53;5071337;28;20044;-63
2021/01/24 04:18:49;;;;;;;8.00;0.90;;;;;;;5.04;100.00;99835.66;5071444;28;20043;-63
2021/01/24 04:21:15;;;;;;;7.13;1.08;;;;;;;5.02;100.00;99837.72;5071361;28;20462;-63
2021/01/24 04:23:40;;;;;;;6.80;0.75;;;;;;;5.03;100.00;99844.81;5071235;28;20089;-62
2021/01/24 04:26:06;;;;;;;3.17;0.40;;;;;;;5.03;100.00;99841.25;5071259;28;20133;-63
2021/01/24 04:28:31;;;;;;;5.20;0.50;;;;;;;5.04;100.00;99832.94;5071190;28;20043;-62
2021/01/24 04:30:57;;;;;;;3.70;0.30;;;;;;;5.07;100.00;99839.78;5071017;28;20089;-63
2021/01/24 04:33:22;;;;;;;2.97;0.50;;;;;;;5.08;100.00;99834.13;5071084;28;20044;-63
2021/01/24 04:35:48;;;;;;;4.68;0.35;;;;;;;5.11;100.00;99828.25;5071584;28;20052;-62
2021/01/24 04:38:14;;;;;;;4.15;0.50;;;;;;;5.12;100.00;99838.00;5071266;28;20032;-62
2021/01/24 04:40:40;;;;;;;4.97;0.55;;;;;;;5.12;100.00;99821.78;5070829;28;20406;-62
2021/01/24 04:43:05;;;;;;;5.68;0.47;;;;;;;5.12;100.00;99827.19;5071092;28;20318;-62
2021/01/24 04:45:32;;;;;;;4.65;0.38;;;;;;;5.15;100.00;99824.00;5070817;28;20050;-62
2021/01/24 04:47:58;;;;;;;4.10;0.35;;;;;;;5.20;100.00;99827.91;5071073;28;20033;-62
2021/01/24 04:50:26;;;;;;;5.18;0.70;;;;;;;5.20;100.00;99836.03;5070961;28;20390;-63
2021/01/24 04:52:51;;;;;;;3.40;0.55;;;;;;;5.23;100.00;99832.88;5070981;28;20040;-62
2021/01/24 04:55:18;;;;;;;5.55;0.50;;;;;;;5.21;100.00;99827.69;5070860;28;20074;-62
2021/01/24 04:57:45;;;;;;;4.00;0.50;;;;;;;5.18;100.00;99825.44;5070930;28;20060;-63
2021/01/24 05:00:12;;;;;;;3.85;0.73;;;;;;;5.09;100.00;99824.94;5052843;28;20040;-63
2021/01/24 05:02:38;;;;;;;4.45;0.35;;;;;;;5.03;100.00;99823.19;5052676;28;20040;-63
2021/01/24 05:05:04;;;;;;;3.38;0.40;;;;;;;4.99;100.00;99830.09;5070480;28;20049;-62
2021/01/24 05:07:30;;;;;;;4.80;0.90;;;;;;;4.93;100.00;99825.59;5070819;28;20440;-63
2021/01/24 05:09:57;;;;;;;2.45;0.60;;;;;;;4.87;100.00;99834.66;5070739;28;20037;-63
2021/01/24 05:12:24;;;;;;;3.65;1.20;;;;;;;4.76;100.00;99838.13;5070580;28;20033;-63
2021/01/24 05:14:50;;;;;;;1.63;1.00;;;;;;;4.68;100.00;99835.72;5070821;28;20102;-62
2021/01/24 05:17:16;;;;;;;4.95;1.45;;;;;;;4.58;100.00;99838.16;5070706;28;20036;-62
2021/01/24 05:19:43;;;;;;;2.53;1.30;;;;;;;4.49;100.00;99843.84;5070580;28;20024;-63
2021/01/24 05:22:09;;;;;;;2.13;1.10;;;;;;;4.42;100.00;99847.72;5070634;28;20040;-63
2021/01/24 05:24:35;;;;;;;3.50;1.27;;;;;;;4.37;100.00;99840.28;5070627;28;20040;-63
2021/01/24 05:27:12;;;;;;;3.67;1.27;;;;;;;4.32;100.00;99837.41;5070581;28;20085;-62
2021/01/24 05:29:41;;;;;;;4.30;1.25;;;;;;;4.28;100.00;99830.81;5070521;28;20032;-63
2021/01/24 05:32:07;;;;;;;1.65;0.90;;;;;;;4.26;100.00;99832.09;5070576;28;20505;-62
2021/01/24 05:34:33;;;;;;;4.68;1.00;;;;;;;4.24;100.00;99824.22;5070468;28;20091;-63
2021/01/24 05:37:00;;;;;;;5.15;1.23;;;;;;;4.22;100.00;99823.63;5070423;28;20448;-62
2021/01/24 05:39:29;;;;;;;3.42;1.20;;;;;;;4.20;100.00;99821.16;5070495;28;20041;-63
2021/01/24 05:41:56;;;;;;;2.10;1.10;;;;;;;4.17;100.00;99808.09;5070430;28;20495;-63
2021/01/24 05:44:24;;;;;;;4.00;1.10;;;;;;;4.16;100.00;99805.59;5070328;28;20037;-62
2021/01/24 05:46:49;;;;;;;1.60;0.90;;;;;;;4.14;100.00;99813.09;5070423;28;20039;-62
2021/01/24 05:49:33;;;;;;;1.52;1.00;;;;;;;4.14;100.00;99813.09;5070360;28;20398;-62
2021/01/24 05:52:04;;;;;;;3.13;1.05;;;;;;;4.14;100.00;99818.50;5070233;28;20040;-63
2021/01/24 05:54:46;;;;;;;3.78;1.20;;;;;;;4.14;100.00;99805.00;5070322;28;20040;-63
2021/01/24 05:57:13;;;;;;;3.67;1.23;;;;;;;4.13;100.00;99804.16;5070770;28;20564;-62
2021/01/24 05:59:58;;;;;;;1.85;1.00;;;;;;;4.12;100.00;99799.00;5070149;28;20394;-63
2021/01/24 06:02:26;;;;;;;4.35;0.98;;;;;;;4.08;100.00;99797.81;5070195;28;20068;-62
2021/01/24 06:04:53;;;;;;;6.47;1.40;;;;;;;4.05;100.00;99803.66;5070084;28;20077;-63
2021/01/24 06:07:19;;;;;;;3.63;1.45;;;;;;;4.01;100.00;99797.06;5070193;28;20186;-62
2021/01/24 06:09:45;;;;;;;4.70;1.50;;;;;;;3.97;100.00;99806.63;5070155;28;20441;-63
2021/01/24 06:12:12;;;;;;;3.28;1.50;;;;;;;3.93;100.00;99801.69;5073293;28;20037;-63
2021/01/24 06:14:40;;;;;;;2.63;1.15;;;;;;;3.92;100.00;99804.63;5073697;28;20037;-63
2021/01/24 06:17:35;;;;;;;5.68;1.30;;;;;;;3.91;100.00;99808.38;5073629;28;20051;-63
2021/01/24 06:20:02;;;;;;;3.13;0.73;;;;;;;3.93;100.00;99800.88;5062945;28;20037;-63
2021/01/24 06:22:34;;;;;;;3.63;1.05;;;;;;;3.92;100.00;99805.44;5073521;28;20066;-63
2021/01/24 06:25:05;;;;;;;2.05;0.90;;;;;;;3.94;100.00;99803.34;5073412;28;20387;-62
2021/01/24 06:27:37;;;;;;;6.75;1.15;;;;;;;3.98;100.00;99809.13;5073593;28;20444;-62
2021/01/24 06:30:08;;;;;;;6.50;1.02;;;;;;;4.04;100.00;99823.63;5073522;28;20033;-63
2021/01/24 06:32:34;;;;;;;3.22;0.93;;;;;;;4.10;100.00;99833.53;5055334;28;20075;-62
2021/01/24 06:35:20;;;;;;;3.42;0.95;;;;;;;4.16;100.00;99854.22;5073419;28;20060;-63
2021/01/24 06:37:49;;;;;;;3.30;0.85;;;;;;;4.18;100.00;99852.97;5073370;28;20036;-62
2021/01/24 06:40:23;;;;;;;2.92;0.38;;;;;;;4.18;100.00;99857.56;5073216;28;20029;-62
2021/01/24 06:42:54;;;;;;;2.38;0.30;;;;;;;4.16;100.00;99832.63;5055060;28;20032;-62
2021/01/24 06:45:22;;;;;;;2.00;0.17;;;;;;;4.10;100.00;99822.72;5073321;28;20112;-62
2021/01/24 06:47:49;;;;;;;0.30;0.20;;;;;;;4.08;100.00;99822.13;5073619;28;20060;-62
2021/01/24 06:50:39;;;;;;;3.25;0.50;;;;;;;4.02;100.00;99823.03;5073051;28;20037;-62
2021/01/24 06:53:24;;;;;;;0.85;0.20;;;;;;;4.01;100.00;99818.69;5073151;28;20390;-63
2021/01/24 06:56:09;;;;;;;2.65;0.40;;;;;;;3.99;100.00;99818.03;5054886;28;20596;-62
2021/01/24 06:58:49;;;;;;;0.60;0.13;;;;;;;3.96;100.00;99818.50;5073070;28;20467;-63
2021/01/24 07:01:31;;;;;;;2.42;0.30;;;;;;;3.94;100.00;99830.34;5073091;28;20036;-62
2021/01/24 07:06:48;;;;;;;3.25;0.28;;;;;;;3.94;100.00;99824.94;5072671;28;20462;-62
2021/01/24 07:09:25;;;;;;;2.92;0.70;;;;;;;3.94;100.00;99841.16;5072759;28;20044;-62
2021/01/24 07:11:55;;;;;;;2.10;0.28;;;;;;;3.93;100.00;99844.91;5072637;28;20044;-63
2021/01/24 07:14:32;;;;;;;1.10;0.32;;;;;;;3.91;100.00;99857.81;5072743;28;20066;-62
2021/01/24 07:17:09;;;;;;;1.52;0.20;;;;;;;3.86;100.00;99837.94;5072645;28;20036;-62
2021/01/24 07:19:46;;;;;;;2.63;0.20;;;;;;;3.83;100.00;99841.91;5072512;28;20133;-63
2021/01/24 07:22:14;;;;;;;2.22;0.20;;;;;;;3.84;100.00;99843.56;5071404;28;20150;-62
2021/01/24 07:24:41;;;;;;;1.20;0.20;;;;;;;3.85;100.00;99842.50;5072486;28;20040;-62
2021/01/24 07:27:09;;;;;;;1.92;0.20;;;;;;;3.88;100.00;99847.47;5072385;28;20045;-63
2021/01/24 07:29:35;;;;;;;1.77;0.30;;;;;;;3.89;100.00;99849.13;5072232;28;20035;-63
2021/01/24 07:32:05;;;;;;;3.67;0.20;;;;;;;3.90;100.00;99849.94;5072258;28;20043;-63
2021/01/24 07:34:31;;;;;;;1.67;0.38;;;;;;;3.91;100.00;99849.72;5072333;28;20033;-63
2021/01/24 07:36:57;;;;;;;0.88;0.20;;;;;;;3.92;100.00;99855.94;5072197;28;20588;-62
2021/01/24 07:39:23;;;;;;;1.17;0.28;;;;;;;3.96;100.00;99867.13;5072215;28;20123;-62
2021/01/24 07:41:50;;;;;;;0.80;0.20;;;;;;;3.94;100.00;99857.38;5054271;28;20131;-62
2021/01/24 07:44:17;;;;;;;1.42;0.20;;;;;;;3.96;100.00;99853.63;5072063;28;20136;-62
2021/01/24 07:46:43;;;;;;;7.10;0.45;;;;;;;3.94;100.00;99853.84;5071917;28;20043;-62
2021/01/24 07:49:08;;;;;;;2.95;0.30;;;;;;;3.91;100.00;99862.41;5071990;28;20490;-63
2021/01/24 07:51:35;;;;;;;2.83;0.60;;;;;;;3.84;100.00;99851.66;5071906;28;20403;-63
2021/01/24 07:54:01;;;;;;;2.15;0.50;;;;;;;3.80;100.00;99855.84;5071809;28;20048;-63
2021/01/24 07:56:27;;;;;;;3.20;0.50;;;;;;;3.75;100.00;99853.00;5071716;28;20067;-63
2021/01/24 07:58:52;;;;;;;1.95;0.75;;;;;;;3.71;100.00;99859.88;5071837;28;20155;-62
2021/01/24 08:01:20;;;;;;;5.38;0.43;;;;;;;3.66;100.00;99859.72;5071677;28;20208;-63
2021/01/24 08:03:47;;;;;;;2.03;0.40;;;;;;;3.62;100.00;99863.91;5071626;28;20032;-63
2021/01/24 08:06:13;;;;;;;2.22;0.47;;;;;;;3.58;100.00;99862.69;5071412;28;20125;-63
2021/01/24 08:08:40;;;;;;;1.35;0.63;;;;;;;3.55;100.00;99863.97;5071493;28;20075;-63
2021/01/24 08:11:06;;;;;;;3.03;0.75;;;;;;;3.54;100.00;99866.88;5071460;28;20098;-62
2021/01/24 08:13:33;;;;;;;4.50;0.63;;;;;;;3.54;100.00;99870.41;5071791;28;20036;-62
2021/01/24 08:16:00;;;;;;;4.25;0.57;;;;;;;3.54;100.00;99866.88;5071474;28;20047;-62
2021/01/24 08:18:32;;;;;;;1.95;0.50;;;;;;;3.57;100.00;99869.13;5071569;28;20402;-62
2021/01/24 08:20:58;;;;;;;3.28;0.60;;;;;;;3.59;100.00;99870.56;5071611;28;20040;-63
2021/01/24 08:23:28;;;;;;;4.70;0.80;;;;;;;3.67;100.00;99884.84;5071432;28;20036;-63
2021/01/24 08:25:56;;;;;;;3.72;0.90;;;;;;;3.78;100.00;99898.44;5071164;28;20032;-63
2021/01/24 08:28:22;;;;;;;10.90;2.10;;;;;;;3.85;100.00;99918.16;5071379;28;20079;-63
2021/01/24 08:30:48;;;;;;;5.47;0.60;;;;;;;3.87;100.00;99916.03;5071375;28;20513;-63
2021/01/24 08:33:18;;;;;;;3.65;0.98;;;;;;;3.92;100.00;99905.38;5070985;28;20475;-63
2021/01/24 08:35:45;;;;;;;3.97;0.68;;;;;;;3.98;100.00;99894.75;5071256;28;20402;-62
2021/01/24 08:38:12;;;;;;;2.78;0.70;;;;;;;3.99;100.00;99891.81;5071874;28;20029;-62
2021/01/24 08:40:39;;;;;;;3.60;0.55;;;;;;;4.02;100.00;99874.34;5071126;28;20044;-62
2021/01/24 08:43:06;;;;;;;3.13;0.40;;;;;;;4.00;100.00;99871.88;5071206;28;20036;-63
2021/01/24 08:45:32;;;;;;;3.90;0.98;;;;;;;4.01;100.00;99872.69;5071231;28;20041;-63
2021/01/24 08:47:59;;;;;;;1.48;0.35;;;;;;;4.04;100.00;99861.44;5071224;28;20090;-62
2021/01/24 08:50:36;;;;;;;4.53;0.30;;;;;;;4.04;100.00;99866.84;5071101;28;20102;-63
2021/01/24 08:53:04;;;;;;;3.50;0.40;;;;;;;4.06;100.00;99856.66;5071077;28;20035;-62
2021/01/24 08:55:30;;;;;;;2.65;0.25;;;;;;;4.07;100.00;99855.59;5071368;28;20033;-64
2021/01/24 08:57:56;;;;;;;4.45;0.30;;;;;;;4.10;100.00;99864.06;5071113;28;20047;-62
2021/01/24 09:00:23;;;;;;;5.35;0.60;;;;;;;4.15;100.00;99853.41;5071044;28;20036;-62
2021/01/24 09:02:49;;;;;;;4.80;0.50;;;;;;;4.17;100.00;99858.63;5071139;28;20089;-63
2021/01/24 09:05:31;;;;;;;3.33;0.50;;;;;;;4.25;100.00;99869.13;5070886;28;20041;-63
2021/01/24 09:07:57;;;;;;;4.20;0.60;;;;;;;4.27;100.00;99867.00;5071065;28;20047;-63
2021/01/24 09:10:25;;;;;;;3.53;0.85;;;;;;;4.31;100.00;99867.38;5071059;28;20040;-63
2021/01/24 09:12:55;;;;;;;5.95;1.10;;;;;;;4.36;100.00;99862.13;5070913;28;20033;-63
2021/01/24 09:15:23;;;;;;;3.50;0.68;;;;;;;4.39;100.00;99859.81;5070874;28;20060;-63
2021/01/24 09:17:53;;;;;;;4.65;0.95;;;;;;;4.44;100.00;99857.25;5070694;28;20508;-63
2021/01/24 09:20:20;;;;;;;6.03;1.13;;;;;;;4.50;100.00;99864.44;5070665;28;20041;-63
2021/01/24 09:22:46;;;;;;;4.43;1.02;;;;;;;4.58;100.00;99867.91;5070591;28;20047;-63
2021/01/24 09:25:12;;;;;;;3.15;0.98;;;;;;;4.66;100.00;99870.28;5070532;28;20036;-63
2021/01/24 09:27:38;;;;;;;5.00;1.70;;;;;;;4.73;100.00;99868.34;5070810;28;20116;-63
2021/01/24 09:30:06;;;;;;;4.07;1.30;;;;;;;4.84;100.00;99859.44;5070584;28;20029;-63
2021/01/24 09:32:32;;;;;;;4.00;1.38;;;;;;;4.96;100.00;99860.31;5070447;28;20043;-63
2021/01/24 09:34:57;;;;;;;2.97;1.15;;;;;;;5.13;100.00;99855.91;5070611;28;20032;-63
2021/01/24 09:37:23;;;;;;;7.80;1.58;;;;;;;5.27;100.00;99866.53;5070564;28;20051;-63
2021/01/24 09:39:49;;;;;;;3.75;0.70;;;;;;;5.23;100.00;99870.78;5070396;28;20070;-63
2021/01/24 09:42:15;;;;;;;3.67;0.50;;;;;;;5.15;100.00;99880.84;5070405;28;20040;-62
2021/01/24 09:44:40;;;;;;;8.27;0.90;;;;;;;5.08;100.00;99895.53;5070419;28;20041;-63
2021/01/24 09:47:06;;;;;;;4.85;0.90;;;;;;;4.99;100.00;99886.91;5073433;28;20045;-63
2021/01/24 09:49:31;;;;;;;2.78;0.50;;;;;;;4.94;100.00;99884.06;5074193;28;20041;-63
2021/01/24 09:51:57;;;;;;;3.90;0.70;;;;;;;4.91;100.00;99878.31;5074465;28;20047;-63
2021/01/24 09:54:23;;;;;;;4.47;1.33;;;;;;;4.83;100.00;99888.38;5074037;28;20482;-63
2021/01/24 09:56:48;;;;;;;4.53;0.93;;;;;;;4.82;100.00;99885.88;5056252;28;20086;-63
2021/01/24 09:59:15;;;;;;;5.07;0.90;;;;;;;4.82;100.00;99875.06;5074037;28;20040;-62
2021/01/24 10:01:44;;;;;;;3.80;0.60;;;;;;;4.89;100.00;99892.06;5073980;28;20040;-63
2021/01/24 10:04:10;;;;;;;4.18;0.60;;;;;;;4.90;100.00;99882.88;5073979;28;20055;-63
2021/01/24 10:06:36;;;;;;;6.50;1.30;;;;;;;4.88;100.00;99874.19;5073890;28;20053;-63
2021/01/24 10:09:03;;;;;;;6.82;0.90;;;;;;;4.87;100.00;99872.53;5073917;28;20135;-63
2021/01/24 10:11:28;;;;;;;1.73;0.75;;;;;;;4.83;100.00;99879.44;5073758;28;20044;-63
2021/01/24 10:13:54;;;;;;;4.63;0.80;;;;;;;4.82;100.00;99875.06;5073763;28;20046;-62
2021/01/24 10:16:20;;;;;;;4.18;0.60;;;;;;;4.82;100.00;99877.78;5073784;28;20548;-63
2021/01/24 10:18:45;;;;;;;7.97;1.10;;;;;;;4.81;100.00;99865.31;5073689;28;20572;-63
2021/01/24 10:21:11;;;;;;;4.78;0.90;;;;;;;4.78;100.00;99868.47;5073637;28;20079;-63
2021/01/24 10:23:39;;;;;;;4.25;1.45;;;;;;;4.78;100.00;99863.06;5073615;28;20110;-63
2021/01/24 10:26:05;;;;;;;6.10;0.70;;;;;;;4.76;100.00;99865.16;5073618;28;20036;-63
2021/01/24 10:28:31;;;;;;;4.85;0.88;;;;;;;4.87;100.00;99861.72;5055564;28;20120;-63
2021/01/24 10:30:56;;;;;;;6.18;1.75;;;;;;;4.98;100.00;99869.03;5073322;28;20494;-63
2021/01/24 10:33:23;;;;;;;11.65;2.40;;;;;;;5.11;100.00;99868.03;5073532;28;20040;-63
2021/01/24 10:35:49;;;;;;;12.25;1.40;;;;;;;5.24;100.00;99861.59;5073414;28;20045;-63
2021/01/24 10:38:15;;;;;;;10.80;1.30;;;;;;;5.36;100.00;99876.78;5073326;28;20486;-63
2021/01/24 10:40:41;;;;;;;11.20;1.10;;;;;;;5.49;100.00;99880.34;5073317;28;20039;-63
2021/01/24 10:43:07;;;;;;;7.70;1.23;;;;;;;5.57;100.00;99864.59;5055232;28;20044;-63
2021/01/24 10:45:34;;;;;;;8.23;1.60;;;;;;;5.68;100.00;99863.78;5073046;28;20072;-63
2021/01/24 10:48:00;;;;;;;14.88;1.00;;;;;;;5.80;100.00;99865.69;5073246;28;20035;-63
2021/01/24 10:50:26;;;;;;;10.68;1.48;;;;;;;5.89;100.00;99875.91;5073091;28;20473;-63
2021/01/24 10:52:53;;;;;;;5.95;0.95;;;;;;;6.03;100.00;99881.97;5073011;28;20037;-62
2021/01/24 10:55:19;;;;;;;7.95;1.00;;;;;;;6.18;100.00;99868.75;5073145;28;20483;-63
2021/01/24 10:57:44;;;;;;;11.00;1.10;;;;;;;6.32;100.00;99872.88;5072772;28;20056;-63
2021/01/24 11:00:11;;;;;;;9.00;1.98;;;;;;;6.48;100.00;99878.63;5072830;28;20495;-63
2021/01/24 11:02:37;;;;;;;7.93;1.95;;;;;;;6.31;100.00;99863.09;5072992;28;20052;-63
2021/01/24 11:05:04;;;;;;;8.02;1.35;;;;;;;6.25;100.00;99855.94;5072691;28;20500;-63
2021/01/24 11:07:30;;;;;;;8.90;0.80;;;;;;;6.15;100.00;99863.81;5072777;28;20057;-63
2021/01/24 11:09:56;;;;;;;8.80;0.85;;;;;;;6.09;100.00;99856.66;5073118;28;20036;-63
2021/01/24 11:12:22;;;;;;;6.85;1.10;;;;;;;6.22;100.00;99853.66;5072730;28;20491;-63
2021/01/24 11:14:49;;;;;;;7.72;0.60;;;;;;;6.32;100.00;99859.31;5072747;28;20041;-63
2021/01/24 11:17:15;;;;;;;6.85;1.65;;;;;;;6.38;100.00;99852.09;5072571;28;20045;-63
2021/01/24 11:19:41;;;;;;;6.88;1.67;;;;;;;6.50;100.00;99849.38;5072576;28;20047;-62
2021/01/24 11:22:06;;;;;;;3.95;0.65;;;;;;;6.63;100.00;99854.53;5072597;28;20051;-63
2021/01/24 11:24:32;;;;;;;2.80;0.80;;;;;;;6.73;100.00;99852.00;5072484;28;20076;-63
2021/01/24 11:26:58;;;;;;;4.18;0.80;;;;;;;6.90;100.00;99850.19;5072330;28;20086;-63
2021/01/24 11:29:24;;;;;;;6.97;1.30;;;;;;;7.08;100.00;99864.63;5072309;28;20110;-63
2021/01/24 11:31:51;;;;;;;12.05;1.42;;;;;;;7.19;100.00;99858.31;5072344;28;20488;-62
2021/01/24 11:34:16;;;;;;;7.05;1.15;;;;;;;7.42;100.00;99857.34;5072189;28;20465;-63
2021/01/24 11:36:42;;;;;;;4.53;0.82;;;;;;;7.67;100.00;99862.41;5072200;28;20131;-63